Time;durP1;ratioP1;P1;durP2;ratioP2;P2;SDS_P1;SDS_P2;PMS_P1;PMS_P2;Temp;Humidity;BMP_temperature;BMP_pressure;BME280_temperature;BME280_humidity;BME280_pressure;Samples;Min_cycle;Max_cycle;Signal;HPM_P1;HPM_P2
2021/01/21 00:05:12;;;;;;;;;67.00;55.67;;;;;;;;12100318;29;8872;-49
2021/01/21 00:11:14;;;;;;;;;53.33;48.00;;;;;;;;12102332;29;8964;-50
2021/01/21 00:17:15;;;;;;;;;52.33;47.33;;;;;;;;12100317;29;8872;-50
2021/01/21 00:23:17;;;;;;;;;63.00;53.33;;;;;;;;12099874;29;8884;-48
2021/01/21 00:29:18;;;;;;;;;61.67;51.00;;;;;;;;12101356;29;8951;-51
2021/01/21 00:35:20;;;;;;;;;61.67;48.00;;;;;;;;12099134;29;8895;-48
2021/01/21 00:41:21;;;;;;;;;65.67;51.67;;;;;;;;12100461;29;8905;-48
2021/01/21 00:47:22;;;;;;;;;61.33;53.33;;;;;;;;12099282;29;8978;-47
2021/01/21 00:53:24;;;;;;;;;57.00;48.00;;;;;;;;12098638;29;8860;-48
2021/01/21 00:59:26;;;;;;;;;51.67;48.67;;;;;;;;12098351;29;8896;-50
2021/01/21 01:05:27;;;;;;;;;64.67;50.33;;;;;;;;12098345;29;8868;-49
2021/01/21 01:11:28;;;;;;;;;58.00;46.67;;;;;;;;12098885;29;9555;-47
2021/01/21 01:17:30;;;;;;;;;67.67;54.00;;;;;;;;12099064;29;8872;-48
2021/01/21 01:23:32;;;;;;;;;54.00;48.00;;;;;;;;12095960;29;8876;-46
2021/01/21 01:29:35;;;;;;;;;57.00;51.00;;;;;;;;12097599;29;8876;-48
2021/01/21 01:35:38;;;;;;;;;48.67;45.33;;;;;;;;12095817;29;8872;-48
2021/01/21 01:41:40;;;;;;;;;52.00;45.00;;;;;;;;12098037;29;8876;-47
2021/01/21 01:47:44;;;;;;;;;58.00;49.67;;;;;;;;12096345;29;8998;-48
2021/01/21 01:53:59;;;;;;;;;55.67;47.33;;;;;;;;12095789;29;8880;-49
2021/01/21 02:00:09;;;;;;;;;49.00;45.00;;;;;;;;12093889;29;8964;-46
2021/01/21 02:06:13;;;;;;;;;46.67;42.33;;;;;;;;12100310;29;8876;-47
2021/01/21 02:12:46;;;;;;;;;56.67;48.33;;;;;;;;12107260;29;8863;-48
2021/01/21 02:19:13;;;;;;;;;57.67;47.33;;;;;;;;12104153;29;8888;-47
2021/01/21 02:25:27;;;;;;;;;52.00;45.00;;;;;;;;12097979;29;8880;-47
2021/01/21 02:32:02;;;;;;;;;53.33;45.00;;;;;;;;12103319;29;8999;-48
2021/01/21 02:38:07;;;;;;;;;57.33;48.33;;;;;;;;12106020;29;8852;-48
2021/01/21 02:44:09;;;;;;;;;50.33;45.00;;;;;;;;12092364;29;8981;-48
2021/01/21 02:50:12;;;;;;;;;52.67;45.00;;;;;;;;12102959;29;8886;-51
2021/01/21 02:56:21;;;;;;;;;52.67;45.00;;;;;;;;12104370;29;8868;-49
2021/01/21 03:02:35;;;;;;;;;40.67;34.33;;;;;;;;12093067;29;9012;-48
2021/01/21 03:08:37;;;;;;;;;48.33;43.00;;;;;;;;12104945;29;8879;-51
2021/01/21 03:14:39;;;;;;;;;54.67;47.33;;;;;;;;12102468;29;8876;-47
2021/01/21 03:20:41;;;;;;;;;53.33;43.00;;;;;;;;12100643;29;8899;-48
2021/01/21 03:26:47;;;;;;;;;42.67;39.00;;;;;;;;12099532;29;8880;-47
2021/01/21 03:32:53;;;;;;;;;51.67;45.00;;;;;;;;12106900;29;8872;-47
2021/01/21 03:38:58;;;;;;;;;48.33;42.00;;;;;;;;12102625;29;8991;-47
2021/01/21 03:45:12;;;;;;;;;51.33;45.00;;;;;;;;12096418;29;8998;-49
2021/01/21 03:51:14;;;;;;;;;47.33;43.00;;;;;;;;12087245;29;8857;-48
2021/01/21 03:57:29;;;;;;;;;42.00;35.33;;;;;;;;12088293;29;8887;-48
2021/01/21 04:03:49;;;;;;;;;43.67;37.67;;;;;;;;12087177;29;8961;-48
2021/01/21 04:09:56;;;;;;;;;45.67;40.00;;;;;;;;12100527;29;8900;-49
2021/01/21 04:16:17;;;;;;;;;37.67;36.67;;;;;;;;12090301;29;10012;-47
2021/01/21 04:22:20;;;;;;;;;38.00;34.33;;;;;;;;12100842;29;8888;-48
2021/01/21 04:28:23;;;;;;;;;43.67;40.67;;;;;;;;12097910;29;8876;-46
2021/01/21 04:34:26;;;;;;;;;32.33;27.00;;;;;;;;12099440;29;9433;-48
2021/01/21 04:40:30;;;;;;;;;40.75;36.25;;;;;;;;12097701;29;8876;-47
2021/01/21 04:46:52;;;;;;;;;37.00;34.00;;;;;;;;12099361;29;8950;-50
2021/01/21 04:53:00;;;;;;;;;45.00;37.00;;;;;;;;12098144;29;9278;-49
2021/01/21 04:59:16;;;;;;;;;34.00;34.00;;;;;;;;12082608;29;8864;-46
2021/01/21 05:05:22;;;;;;;;;37.00;36.00;;;;;;;;12525211;23;9628;-49
2021/01/21 05:11:24;;;;;;;;;39.33;36.33;;;;;;;;12131769;29;8869;-47
2021/01/21 05:17:44;;;;;;;;;35.00;32.00;;;;;;;;12123574;29;8850;-51
2021/01/21 05:24:05;;;;;;;;;48.33;40.33;;;;;;;;12126747;29;8877;-48
2021/01/21 05:30:33;;;;;;;;;38.67;33.00;;;;;;;;12121835;29;8872;-50
2021/01/21 05:36:37;;;;;;;;;40.50;34.25;;;;;;;;12118469;29;8858;-50
2021/01/21 05:42:55;;;;;;;;;43.33;39.67;;;;;;;;12125863;29;9267;-50
2021/01/21 05:49:14;;;;;;;;;42.67;37.67;;;;;;;;12123225;29;8853;-49
2021/01/21 05:55:18;;;;;;;;;43.67;42.33;;;;;;;;12124413;29;8972;-48
2021/01/21 06:01:26;;;;;;;;;42.67;39.33;;;;;;;;12123977;29;9000;-49
2021/01/21 06:07:33;;;;;;;;;44.33;40.00;;;;;;;;12120688;29;8864;-50
2021/01/21 06:13:43;;;;;;;;;42.50;40.50;;;;;;;;12113757;29;8884;-52
2021/01/21 06:19:45;;;;;;;;;43.25;41.50;;;;;;;;12123624;29;8883;-48
2021/01/21 06:25:52;;;;;;;;;53.00;42.75;;;;;;;;12118531;29;8869;-54
2021/01/21 06:32:00;;;;;;;;;49.00;41.67;;;;;;;;12117075;29;8963;-49
2021/01/21 06:38:08;;;;;;;;;43.00;39.67;;;;;;;;12124078;29;8848;-53
2021/01/21 06:44:15;;;;;;;;;61.00;51.00;;;;;;;;12122884;29;8870;-49
2021/01/21 06:50:17;;;;;;;;;57.00;48.00;;;;;;;;12115390;29;8854;-53
2021/01/21 06:56:18;;;;;;;;;64.67;52.67;;;;;;;;12129309;29;8923;-51
2021/01/21 07:02:38;;;;;;;;;50.67;48.00;;;;;;;;12124120;29;9621;-53
2021/01/21 07:09:05;;;;;;;;;59.33;49.00;;;;;;;;12135246;29;8908;-54
2021/01/21 07:15:09;;;;;;;;;47.25;42.75;;;;;;;;12124435;29;8861;-50
2021/01/21 07:21:13;;;;;;;;;48.00;44.25;;;;;;;;12122575;29;8888;-52
2021/01/21 07:27:20;;;;;;;;;44.75;43.00;;;;;;;;12130041;29;9705;-53
2021/01/21 07:33:23;;;;;;;;;45.50;43.00;;;;;;;;12127147;29;8896;-55
2021/01/21 07:39:47;;;;;;;;;48.00;39.25;;;;;;;;12129685;29;8853;-52
2021/01/21 07:45:49;;;;;;;;;44.75;41.25;;;;;;;;12128974;29;8884;-52
2021/01/21 07:52:16;;;;;;;;;42.25;40.25;;;;;;;;12137342;29;8857;-54
2021/01/21 07:58:27;;;;;;;;;44.50;38.00;;;;;;;;12118883;29;8884;-54
2021/01/21 08:04:29;;;;;;;;;49.00;43.25;;;;;;;;12125482;29;8873;-55
2021/01/21 08:10:35;;;;;;;;;52.75;44.25;;;;;;;;12122037;29;8854;-53
2021/01/21 08:16:36;;;;;;;;;46.00;42.25;;;;;;;;12131845;29;8877;-53
2021/01/21 08:22:50;;;;;;;;;47.50;43.00;;;;;;;;12116426;29;8967;-54
2021/01/21 08:28:52;;;;;;;;;54.75;46.50;;;;;;;;12117154;29;8884;-52
2021/01/21 08:34:53;;;;;;;;;52.50;46.25;;;;;;;;12125551;29;8860;-54
2021/01/21 08:40:56;;;;;;;;;54.75;47.25;;;;;;;;12124275;29;8857;-50
2021/01/21 08:46:58;;;;;;;;;69.25;54.50;;;;;;;;12119301;29;8915;-54
2021/01/21 08:53:02;;;;;;;;;56.75;45.25;;;;;;;;12128072;29;8862;-51
2021/01/21 08:59:23;;;;;;;;;53.25;47.00;;;;;;;;12120712;29;9649;-56
2021/01/21 09:05:25;;;;;;;;;52.50;43.25;;;;;;;;12126644;29;9066;-56
2021/01/21 09:11:32;;;;;;;;;55.75;45.50;;;;;;;;12123614;29;8901;-55
2021/01/21 09:17:37;;;;;;;;;49.25;43.75;;;;;;;;12124604;29;8875;-54
2021/01/21 09:23:39;;;;;;;;;52.00;46.25;;;;;;;;12125339;29;8896;-51
2021/01/21 09:30:03;;;;;;;;;58.00;49.25;;;;;;;;12124326;29;8912;-56
2021/01/21 09:36:05;;;;;;;;;50.50;43.75;;;;;;;;12121214;29;8947;-54
2021/01/21 09:42:07;;;;;;;;;56.00;44.00;;;;;;;;12110253;29;8895;-54
2021/01/21 09:48:08;;;;;;;;;44.75;42.50;;;;;;;;12122018;29;8888;-53
2021/01/21 09:54:10;;;;;;;;;49.00;43.50;;;;;;;;12115900;29;8860;-51
2021/01/21 10:00:14;;;;;;;;;60.50;48.00;;;;;;;;12123380;29;10299;-50
2021/01/21 10:06:15;;;;;;;;;46.75;42.50;;;;;;;;12115730;29;8985;-55
2021/01/21 10:12:17;;;;;;;;;53.75;44.25;;;;;;;;12125530;29;8919;-55
2021/01/21 10:18:18;;;;;;;;;54.25;46.50;;;;;;;;12121555;29;8865;-56
2021/01/21 10:24:21;;;;;;;;;57.00;46.00;;;;;;;;12121389;29;8869;-55
2021/01/21 10:30:22;;;;;;;;;49.75;43.25;;;;;;;;12130704;29;8850;-56
2021/01/21 10:36:25;;;;;;;;;60.25;50.00;;;;;;;;12132530;29;8887;-53
2021/01/21 10:42:26;;;;;;;;;59.50;44.50;;;;;;;;12127506;29;8881;-53
2021/01/21 10:48:28;;;;;;;;;53.25;45.00;;;;;;;;12133390;29;8970;-53
2021/01/21 10:54:30;;;;;;;;;56.25;46.50;;;;;;;;12124102;29;8888;-55
2021/01/21 11:00:33;;;;;;;;;46.25;38.75;;;;;;;;12126533;29;8876;-55
2021/01/21 11:06:35;;;;;;;;;39.00;38.25;;;;;;;;12124910;29;8868;-54
2021/01/21 11:12:36;;;;;;;;;55.75;43.25;;;;;;;;12134256;29;11230;-52
2021/01/21 11:18:37;;;;;;;;;45.50;41.25;;;;;;;;12116068;29;8875;-60
2021/01/21 11:24:39;;;;;;;;;42.75;35.75;;;;;;;;12120475;29;9399;-56
2021/01/21 11:30:40;;;;;;;;;50.50;40.50;;;;;;;;12124543;29;8952;-54
2021/01/21 11:36:42;;;;;;;;;49.00;43.50;;;;;;;;12119612;29;8972;-52
2021/01/21 11:42:43;;;;;;;;;45.25;40.75;;;;;;;;12127980;29;8853;-53
2021/01/21 11:48:45;;;;;;;;;47.75;42.00;;;;;;;;12132726;29;8871;-51
2021/01/21 11:54:46;;;;;;;;;58.00;45.25;;;;;;;;12126893;29;8876;-54
2021/01/21 12:00:48;;;;;;;;;46.75;43.00;;;;;;;;12130211;29;8857;-54
2021/01/21 12:06:52;;;;;;;;;48.50;42.75;;;;;;;;12126212;29;8885;-55
2021/01/21 12:12:56;;;;;;;;;41.75;39.00;;;;;;;;12122865;29;8884;-53
2021/01/21 12:18:58;;;;;;;;;50.50;42.75;;;;;;;;12121051;29;8884;-54
2021/01/21 12:24:59;;;;;;;;;40.00;36.75;;;;;;;;12125333;29;8876;-52
2021/01/21 12:31:05;;;;;;;;;50.75;45.50;;;;;;;;12121399;29;8876;-54
2021/01/21 12:37:07;;;;;;;;;45.25;38.25;;;;;;;;12134128;29;8858;-54
2021/01/21 12:43:08;;;;;;;;;43.25;39.00;;;;;;;;12131891;29;8931;-54
2021/01/21 12:49:10;;;;;;;;;43.75;39.00;;;;;;;;12124794;29;8862;-53
2021/01/21 12:55:12;;;;;;;;;41.50;37.25;;;;;;;;12131659;29;8884;-53
2021/01/21 13:01:13;;;;;;;;;41.00;38.00;;;;;;;;12136286;29;8861;-52
2021/01/21 13:07:15;;;;;;;;;40.50;39.25;;;;;;;;12135452;29;8968;-54
2021/01/21 13:13:17;;;;;;;;;42.25;36.75;;;;;;;;12135628;29;8872;-54
2021/01/21 13:19:18;;;;;;;;;41.75;39.25;;;;;;;;12135067;29;8862;-52
2021/01/21 13:25:19;;;;;;;;;39.00;36.00;;;;;;;;12130388;29;8880;-56
2021/01/21 13:31:21;;;;;;;;;47.75;42.75;;;;;;;;12133103;29;8861;-52
2021/01/21 13:37:22;;;;;;;;;50.75;43.00;;;;;;;;12130650;29;8961;-52
2021/01/21 13:43:24;;;;;;;;;36.50;36.00;;;;;;;;12123571;29;8856;-55
2021/01/21 13:49:25;;;;;;;;;39.00;37.00;;;;;;;;12125870;29;8870;-53
2021/01/21 13:55:27;;;;;;;;;45.75;40.00;;;;;;;;12127259;29;8883;-56
2021/01/21 14:01:28;;;;;;;;;47.75;41.75;;;;;;;;12141604;29;8866;-57
2021/01/21 14:07:31;;;;;;;;;48.25;42.00;;;;;;;;12134956;29;9734;-57
2021/01/21 14:13:33;;;;;;;;;48.25;42.75;;;;;;;;12140156;29;8857;-55
2021/01/21 14:19:34;;;;;;;;;49.50;44.50;;;;;;;;12138721;29;8861;-58
2021/01/21 14:25:39;;;;;;;;;43.50;40.50;;;;;;;;12136631;29;8861;-54
2021/01/21 14:31:41;;;;;;;;;50.50;42.75;;;;;;;;12132877;29;8884;-54
2021/01/21 14:37:43;;;;;;;;;45.75;40.25;;;;;;;;12134550;29;8861;-56
2021/01/21 14:43:44;;;;;;;;;46.50;38.75;;;;;;;;12131413;29;8873;-55
2021/01/21 14:49:46;;;;;;;;;48.00;41.50;;;;;;;;12124915;29;8877;-53
2021/01/21 14:55:47;;;;;;;;;44.00;42.00;;;;;;;;12129990;29;8876;-55
2021/01/21 15:01:49;;;;;;;;;46.75;41.75;;;;;;;;12123442;29;8881;-54
2021/01/21 15:07:52;;;;;;;;;50.25;43.50;;;;;;;;12117755;29;8992;-54
2021/01/21 15:13:53;;;;;;;;;58.75;48.50;;;;;;;;12130139;29;8876;-54
2021/01/21 15:19:55;;;;;;;;;62.25;47.25;;;;;;;;12131194;29;8840;-56
2021/01/21 15:25:56;;;;;;;;;54.00;45.00;;;;;;;;12123793;29;9016;-53
2021/01/21 15:31:57;;;;;;;;;51.75;45.25;;;;;;;;12120118;29;8857;-53
2021/01/21 15:38:02;;;;;;;;;56.00;45.50;;;;;;;;12124600;29;8854;-54
2021/01/21 15:44:05;;;;;;;;;58.50;49.75;;;;;;;;12121755;29;9610;-53
2021/01/21 15:50:07;;;;;;;;;67.50;52.75;;;;;;;;12131786;29;8903;-51
2021/01/21 15:56:09;;;;;;;;;60.25;47.75;;;;;;;;12127736;29;8880;-52
2021/01/21 16:02:11;;;;;;;;;62.75;50.00;;;;;;;;12125135;29;8850;-55
2021/01/21 16:08:12;;;;;;;;;61.75;52.25;;;;;;;;12124018;29;8865;-54
2021/01/21 16:14:14;;;;;;;;;65.00;53.00;;;;;;;;12120699;29;8907;-54
2021/01/21 16:20:16;;;;;;;;;64.25;53.00;;;;;;;;12129820;29;8861;-56
2021/01/21 16:26:17;;;;;;;;;63.25;50.50;;;;;;;;12124035;29;9674;-54
2021/01/21 16:32:19;;;;;;;;;68.00;53.50;;;;;;;;12125580;29;8862;-55
2021/01/21 16:38:20;;;;;;;;;66.50;54.25;;;;;;;;12122640;29;8854;-55
2021/01/21 16:44:21;;;;;;;;;69.50;56.00;;;;;;;;12119388;29;8880;-52
2021/01/21 16:50:25;;;;;;;;;72.25;60.25;;;;;;;;12129046;29;8891;-54
2021/01/21 16:56:27;;;;;;;;;80.00;62.00;;;;;;;;12120680;29;8873;-53
2021/01/21 17:02:28;;;;;;;;;74.50;61.00;;;;;;;;12123532;29;8896;-56
2021/01/21 17:08:30;;;;;;;;;75.00;60.00;;;;;;;;12124377;29;8947;-55
2021/01/21 17:14:35;;;;;;;;;71.25;58.00;;;;;;;;12126094;29;8848;-55
2021/01/21 17:20:52;;;;;;;;;78.50;61.75;;;;;;;;12122765;29;8987;-54
2021/01/21 17:26:54;;;;;;;;;78.00;62.25;;;;;;;;12125969;29;8900;-56
2021/01/21 17:32:55;;;;;;;;;69.75;59.00;;;;;;;;12118723;29;8884;-53
2021/01/21 17:38:57;;;;;;;;;76.00;62.50;;;;;;;;12120249;29;8883;-55
2021/01/21 17:45:03;;;;;;;;;70.25;56.50;;;;;;;;12122696;29;8934;-53
2021/01/21 17:51:06;;;;;;;;;73.25;59.00;;;;;;;;12122564;29;8902;-54
2021/01/21 17:57:08;;;;;;;;;75.25;61.25;;;;;;;;12124518;29;8892;-52
2021/01/21 18:03:10;;;;;;;;;66.33;55.00;;;;;;;;12118990;29;8854;-54
2021/01/21 18:09:12;;;;;;;;;76.75;62.00;;;;;;;;12119418;29;8907;-53
2021/01/21 18:15:13;;;;;;;;;73.75;60.25;;;;;;;;12120268;29;8871;-54
2021/01/21 18:21:16;;;;;;;;;75.25;62.25;;;;;;;;12124272;29;8864;-52
2021/01/21 18:27:17;;;;;;;;;76.50;60.00;;;;;;;;12121212;29;8887;-55
2021/01/21 18:33:19;;;;;;;;;78.67;62.67;;;;;;;;12124787;29;8919;-54
2021/01/21 18:39:20;;;;;;;;;78.00;63.00;;;;;;;;12120753;29;8853;-55
2021/01/21 18:45:22;;;;;;;;;83.25;65.25;;;;;;;;12121327;29;8866;-50
2021/01/21 18:51:23;;;;;;;;;89.00;68.67;;;;;;;;12128904;29;8860;-55
2021/01/21 18:57:25;;;;;;;;;84.33;67.33;;;;;;;;12123514;29;8887;-50
2021/01/21 19:03:26;;;;;;;;;88.67;70.00;;;;;;;;12132675;29;8872;-53
2021/01/21 19:09:28;;;;;;;;;84.33;67.33;;;;;;;;12125791;29;8962;-50
2021/01/21 19:15:29;;;;;;;;;87.33;68.00;;;;;;;;12130448;29;8865;-51
2021/01/21 19:21:30;;;;;;;;;81.00;64.67;;;;;;;;12124889;29;8860;-50
2021/01/21 19:27:32;;;;;;;;;81.33;65.00;;;;;;;;12129730;29;8872;-52
2021/01/21 19:33:33;;;;;;;;;82.00;64.00;;;;;;;;12124269;29;8836;-53
2021/01/21 19:39:35;;;;;;;;;75.50;59.00;;;;;;;;12130200;29;8874;-54
2021/01/21 19:45:37;;;;;;;;;80.25;62.75;;;;;;;;12121879;29;9020;-51
2021/01/21 19:51:38;;;;;;;;;80.00;65.33;;;;;;;;12129339;29;9705;-52
2021/01/21 19:57:39;;;;;;;;;71.25;59.50;;;;;;;;12129662;29;9692;-53
2021/01/21 20:03:41;;;;;;;;;78.00;60.75;;;;;;;;12123821;29;8880;-51
2021/01/21 20:09:42;;;;;;;;;75.50;62.75;;;;;;;;12128442;29;8853;-54
2021/01/21 20:15:43;;;;;;;;;77.67;62.33;;;;;;;;12121254;29;9701;-51
2021/01/21 20:21:45;;;;;;;;;81.67;65.33;;;;;;;;12127632;29;8849;-49
2021/01/21 20:27:47;;;;;;;;;75.00;62.00;;;;;;;;12124001;29;8876;-51
2021/01/21 20:33:49;;;;;;;;;79.00;65.33;;;;;;;;12125588;29;8872;-50
2021/01/21 20:39:50;;;;;;;;;75.50;61.50;;;;;;;;12128010;29;8842;-51
2021/01/21 20:45:52;;;;;;;;;67.67;57.00;;;;;;;;12118997;29;8874;-50
2021/01/21 20:51:53;;;;;;;;;80.00;63.33;;;;;;;;12125982;29;8856;-52
2021/01/21 20:57:55;;;;;;;;;81.33;63.00;;;;;;;;12121572;29;8880;-49
2021/01/21 21:03:56;;;;;;;;;75.33;61.67;;;;;;;;12119842;29;9647;-49
2021/01/21 21:09:58;;;;;;;;;75.75;61.75;;;;;;;;12119284;29;8852;-53
2021/01/21 21:16:00;;;;;;;;;83.67;67.33;;;;;;;;12125670;29;8865;-49
2021/01/21 21:22:03;;;;;;;;;88.00;68.67;;;;;;;;12122033;29;8881;-54
2021/01/21 21:28:05;;;;;;;;;87.67;67.00;;;;;;;;12125045;29;8869;-53
2021/01/21 21:34:08;;;;;;;;;84.33;70.00;;;;;;;;12117847;29;8901;-54
2021/01/21 21:40:09;;;;;;;;;82.00;64.33;;;;;;;;12125584;29;8858;-52
2021/01/21 21:46:11;;;;;;;;;90.33;71.00;;;;;;;;12119008;29;8951;-54
2021/01/21 21:52:14;;;;;;;;;97.00;75.67;;;;;;;;12121657;29;8947;-50
2021/01/21 21:58:15;;;;;;;;;84.00;69.00;;;;;;;;12116792;29;8864;-50
2021/01/21 22:04:17;;;;;;;;;91.33;75.33;;;;;;;;12122157;29;8912;-48
2021/01/21 22:10:18;;;;;;;;;93.67;73.33;;;;;;;;12120288;29;8895;-54
2021/01/21 22:16:20;;;;;;;;;86.00;70.33;;;;;;;;12121861;29;8853;-52
2021/01/21 22:22:21;;;;;;;;;87.67;70.33;;;;;;;;12124685;29;8964;-52
2021/01/21 22:28:23;;;;;;;;;98.67;75.67;;;;;;;;12133859;29;8874;-59
2021/01/21 22:34:24;;;;;;;;;91.33;69.67;;;;;;;;12125209;29;8854;-50
2021/01/21 22:40:26;;;;;;;;;89.00;71.67;;;;;;;;12130608;29;8856;-55
2021/01/21 22:46:28;;;;;;;;;88.67;67.67;;;;;;;;12126687;29;9357;-51
2021/01/21 22:52:29;;;;;;;;;82.33;68.33;;;;;;;;12130756;29;8845;-51
2021/01/21 22:58:31;;;;;;;;;91.67;69.00;;;;;;;;12131058;29;8905;-48
2021/01/21 23:04:32;;;;;;;;;89.00;69.67;;;;;;;;12123169;29;8880;-49
2021/01/21 23:10:33;;;;;;;;;88.33;67.33;;;;;;;;12130929;29;9220;-49
2021/01/21 23:16:35;;;;;;;;;94.00;73.33;;;;;;;;12123713;29;9024;-51
2021/01/21 23:22:37;;;;;;;;;83.33;66.00;;;;;;;;12128219;29;8872;-48
2021/01/21 23:28:40;;;;;;;;;100.00;76.00;;;;;;;;12130041;29;8911;-50
2021/01/21 23:34:42;;;;;;;;;93.00;72.67;;;;;;;;12122700;29;8879;-49
2021/01/21 23:40:44;;;;;;;;;93.33;72.67;;;;;;;;12124868;29;8880;-51
2021/01/21 23:46:45;;;;;;;;;96.00;73.00;;;;;;;;12130168;29;9578;-49
2021/01/21 23:52:46;;;;;;;;;98.33;78.67;;;;;;;;12126577;29;8874;-50
2021/01/21 23:58:48;;;;;;;;;96.67;76.33;;;;;;;;12123271;29;8857;-50
